Time;durP1;ratioP1;P1;durP2;ratioP2;P2;SDS_P1;SDS_P2;PMS_P1;PMS_P2;Temp;Humidity;BMP_temperature;BMP_pressure;BME280_temperature;BME280_humidity;BME280_pressure;Samples;Min_cycle;Max_cycle;Signal;HPM_P1;HPM_P2
2022/10/05 00:01:42;;;;;;;9.07;4.75;;;15.20;99.90;;;;;;5056020;28;20044;-69
2022/10/05 00:04:18;;;;;;;7.15;4.25;;;15.20;99.90;;;;;;5058250;28;20070;-69
2022/10/05 00:06:54;;;;;;;9.15;5.00;;;15.20;99.90;;;;;;5101240;28;20483;-69
2022/10/05 00:09:21;;;;;;;7.72;4.45;;;15.20;99.90;;;;;;5073886;28;20036;-70
2022/10/05 00:11:47;;;;;;;4.75;4.28;;;15.20;99.90;;;;;;5070939;28;20706;-69
2022/10/05 00:14:30;;;;;;;9.25;4.53;;;15.20;99.90;;;;;;5074489;28;20151;-69
2022/10/05 00:16:56;;;;;;;7.20;4.32;;;15.20;99.90;;;;;;5073361;28;20482;-69
2022/10/05 00:19:35;;;;;;;7.25;4.57;;;15.20;99.90;;;;;;5073150;28;20046;-69
2022/10/05 00:22:12;;;;;;;5.80;4.28;;;15.20;99.90;;;;;;5070544;28;20448;-69
2022/10/05 00:24:38;;;;;;;9.88;4.30;;;15.20;99.90;;;;;;5071798;28;20171;-69
2022/10/05 00:27:36;;;;;;;7.10;3.97;;;15.20;99.90;;;;;;5072144;28;20071;-68
2022/10/05 00:30:13;;;;;;;9.00;4.00;;;15.10;99.90;;;;;;5070594;28;20048;-69
2022/10/05 00:32:38;;;;;;;6.55;4.38;;;15.10;99.90;;;;;;5076435;28;20680;-69
2022/10/05 00:35:05;;;;;;;7.40;4.32;;;15.10;99.90;;;;;;5088133;28;20424;-70
2022/10/05 00:37:30;;;;;;;10.48;4.00;;;15.10;99.90;;;;;;5089618;28;20036;-68
2022/10/05 00:39:56;;;;;;;5.78;3.90;;;15.10;99.90;;;;;;5088069;28;20034;-69
2022/10/05 00:42:36;;;;;;;7.57;4.55;;;15.10;99.90;;;;;;5089496;28;20039;-69
2022/10/05 00:45:05;;;;;;;7.03;3.85;;;15.20;99.90;;;;;;5088495;28;20047;-68
2022/10/05 00:47:35;;;;;;;7.55;4.68;;;15.10;99.90;;;;;;5088366;28;20039;-69
2022/10/05 00:50:38;;;;;;;6.38;4.35;;;15.10;99.90;;;;;;5069185;28;20063;-69
2022/10/05 00:53:15;;;;;;;6.68;4.78;;;15.20;99.90;;;;;;5092443;28;20052;-69
2022/10/05 00:55:56;;;;;;;8.30;4.35;;;15.10;99.90;;;;;;5088835;28;20052;-69
2022/10/05 00:58:29;;;;;;;9.75;5.07;;;15.10;99.90;;;;;;5089536;28;20097;-68
2022/10/05 01:01:07;;;;;;;7.28;4.93;;;15.10;99.90;;;;;;5072878;28;20123;-69
2022/10/05 01:03:53;;;;;;;9.00;4.70;;;15.10;99.90;;;;;;5087899;28;20093;-68
2022/10/05 01:06:30;;;;;;;9.32;5.13;;;15.10;99.90;;;;;;4993083;28;20046;-69
2022/10/05 01:09:17;;;;;;;6.78;4.80;;;15.10;99.90;;;;;;4976228;28;20060;-68
2022/10/05 01:11:52;;;;;;;7.72;5.07;;;15.10;99.90;;;;;;4975671;28;20485;-69
2022/10/05 01:14:24;;;;;;;6.32;5.18;;;15.10;99.90;;;;;;4975198;28;20412;-69
2022/10/05 01:17:12;;;;;;;9.23;5.90;;;15.10;99.90;;;;;;5020877;28;20045;-69
2022/10/05 01:19:53;;;;;;;6.55;5.20;;;15.10;99.90;;;;;;4993170;28;20487;-68
2022/10/05 01:22:52;;;;;;;6.10;5.18;;;15.10;99.90;;;;;;4975522;28;20033;-69
2022/10/05 01:25:59;;;;;;;7.50;4.97;;;15.10;99.90;;;;;;5006705;28;20125;-68
2022/10/05 01:28:29;;;;;;;8.82;5.35;;;15.10;99.90;;;;;;4912905;29;20054;-71
2022/10/05 01:31:07;;;;;;;7.63;4.78;;;15.00;99.90;;;;;;4914289;29;20099;-69
2022/10/05 01:33:37;;;;;;;10.05;6.13;;;15.00;99.90;;;;;;4915346;29;20059;-70
2022/10/05 01:36:15;;;;;;;8.70;5.50;;;15.00;99.90;;;;;;4914584;29;20054;-68
2022/10/05 01:38:54;;;;;;;8.45;5.53;;;15.00;99.90;;;;;;4940217;29;20048;-69
2022/10/05 01:41:54;;;;;;;9.35;5.68;;;15.00;99.90;;;;;;4913826;29;20046;-68
2022/10/05 01:44:35;;;;;;;8.45;5.93;;;15.00;99.90;;;;;;4981893;28;20091;-69
2022/10/05 01:47:21;;;;;;;8.48;5.72;;;15.00;99.90;;;;;;5004492;28;20045;-69
2022/10/05 01:49:51;;;;;;;10.52;6.30;;;15.00;99.90;;;;;;5007678;28;20255;-68
2022/10/05 01:52:17;;;;;;;8.85;6.20;;;14.90;99.90;;;;;;5008460;28;20057;-69
2022/10/05 01:55:00;;;;;;;9.02;6.15;;;15.00;99.90;;;;;;5012388;28;20038;-69
2022/10/05 01:57:56;;;;;;;10.45;6.63;;;15.00;99.90;;;;;;5010960;28;20099;-69
2022/10/05 02:00:22;;;;;;;9.25;5.60;;;15.00;99.90;;;;;;5014245;28;20138;-68
2022/10/05 02:02:54;;;;;;;8.77;5.88;;;15.00;99.90;;;;;;5009052;28;20077;-68
2022/10/05 02:05:22;;;;;;;;;;;14.90;99.90;;;;;;5056458;28;20046;-69
2022/10/05 02:08:10;;;;;;;11.82;5.95;;;14.90;99.90;;;;;;5088182;28;19924;-68
2022/10/05 02:10:58;;;;;;;11.15;5.82;;;14.90;99.90;;;;;;5064842;28;20448;-69
2022/10/05 02:13:44;;;;;;;7.50;5.80;;;14.90;99.90;;;;;;5113423;27;20036;-69
2022/10/05 02:16:15;;;;;;;7.78;5.43;;;14.90;99.90;;;;;;5075706;28;20052;-68
2022/10/05 02:18:48;;;;;;;7.38;5.22;;;14.90;99.90;;;;;;5089355;28;20039;-69
2022/10/05 02:21:15;;;;;;;6.82;5.28;;;14.90;99.90;;;;;;5085149;28;20390;-69
2022/10/05 02:23:43;;;;;;;9.13;5.60;;;14.90;99.90;;;;;;5085205;28;20051;-70
2022/10/05 02:26:11;;;;;;;8.65;6.05;;;14.90;99.90;;;;;;5081780;28;20498;-69
2022/10/05 02:28:46;;;;;;;8.32;5.50;;;14.90;99.90;;;;;;5071502;28;20049;-69
2022/10/05 02:31:16;;;;;;;9.75;6.00;;;14.90;99.90;;;;;;5070160;28;20082;-69
2022/10/05 02:33:42;;;;;;;8.38;5.78;;;14.90;99.90;;;;;;5076206;28;20044;-69
2022/10/05 02:36:32;;;;;;;8.45;6.07;;;14.90;99.90;;;;;;5066525;28;20085;-70
2022/10/05 02:39:08;;;;;;;6.85;5.53;;;14.90;99.90;;;;;;5077271;28;20036;-70
2022/10/05 02:41:34;;;;;;;10.57;6.10;;;14.80;99.90;;;;;;5080593;28;20043;-68
2022/10/05 02:44:17;;;;;;;10.00;5.80;;;14.90;99.90;;;;;;5081800;28;20040;-68
2022/10/05 02:46:46;;;;;;;8.55;5.80;;;14.80;99.90;;;;;;5079692;28;20040;-68
2022/10/05 02:49:40;;;;;;;8.75;5.28;;;14.80;99.90;;;;;;5085199;28;20048;-68
2022/10/05 02:52:25;;;;;;;8.77;5.55;;;14.90;99.90;;;;;;5071862;28;20129;-68
2022/10/05 02:55:13;;;;;;;8.43;5.60;;;14.80;99.90;;;;;;5059947;28;20475;-68
2022/10/05 02:57:47;;;;;;;9.65;5.40;;;14.80;99.90;;;;;;5072668;28;20049;-69
2022/10/05 03:00:18;;;;;;;6.30;4.93;;;14.80;99.90;;;;;;5078256;28;20440;-68
2022/10/05 03:03:09;;;;;;;6.30;5.30;;;14.80;99.90;;;;;;5108859;28;20059;-69
2022/10/05 03:05:42;;;;;;;8.15;6.07;;;14.80;99.90;;;;;;5050233;28;20043;-68
2022/10/05 03:08:17;;;;;;;9.07;5.32;;;14.80;99.90;;;;;;5088702;28;20093;-68
2022/10/05 03:10:56;;;;;;;6.45;5.38;;;14.80;99.90;;;;;;5068630;28;20797;-68
2022/10/05 03:13:36;;;;;;;7.80;5.85;;;14.80;99.90;;;;;;5086986;28;20078;-68
2022/10/05 03:16:55;;;;;;;7.78;6.18;;;14.80;99.90;;;;;;5083300;28;20090;-68
2022/10/05 03:19:45;;;;;;;7.30;5.50;;;14.80;99.90;;;;;;4989799;28;20447;-68
2022/10/05 03:22:42;;;;;;;6.95;5.47;;;14.70;99.90;;;;;;4991700;28;20081;-68
2022/10/05 03:25:13;;;;;;;6.97;4.93;;;14.70;99.90;;;;;;4988004;28;20143;-68
2022/10/05 03:28:03;;;;;;;7.40;5.40;;;14.70;99.90;;;;;;4988253;28;20076;-68
2022/10/05 03:31:02;;;;;;;8.77;5.88;;;14.70;99.90;;;;;;4989748;28;20738;-67
2022/10/05 03:33:39;;;;;;;8.38;6.55;;;14.70;99.90;;;;;;4911980;29;20053;-68
2022/10/05 03:37:02;;;;;;;6.97;5.40;;;14.70;99.90;;;;;;4904161;29;20058;-68
2022/10/05 03:39:35;;;;;;;8.73;5.93;;;14.70;99.90;;;;;;4847824;29;20057;-69
2022/10/05 03:42:09;;;;;;;7.35;5.60;;;14.60;99.90;;;;;;4841412;29;20530;-68
2022/10/05 03:44:58;;;;;;;9.70;6.20;;;14.60;99.90;;;;;;4845128;29;20430;-68
2022/10/05 03:47:34;;;;;;;8.73;5.63;;;14.60;99.90;;;;;;4862945;29;20071;-68
2022/10/05 03:50:10;;;;;;;8.60;6.22;;;14.60;99.90;;;;;;4845828;29;20060;-68
2022/10/05 03:52:54;;;;;;;9.27;6.05;;;14.60;99.90;;;;;;4886802;28;20091;-68
2022/10/05 03:55:29;;;;;;;9.43;5.80;;;14.60;99.90;;;;;;4952634;28;20465;-68
2022/10/05 03:57:58;;;;;;;8.10;5.70;;;14.60;99.90;;;;;;4920982;28;21624;-69
2022/10/05 04:00:27;;;;;;;8.50;6.07;;;14.60;99.90;;;;;;4952322;28;20042;-69
2022/10/05 04:03:09;;;;;;;8.38;6.00;;;14.60;99.90;;;;;;4952703;28;20061;-68
2022/10/05 04:05:56;;;;;;;10.32;5.97;;;14.60;99.90;;;;;;4949254;28;20051;-69
2022/10/05 04:08:29;;;;;;;10.23;6.45;;;14.60;99.90;;;;;;4940490;28;20051;-69
2022/10/05 04:10:58;;;;;;;8.60;6.20;;;14.50;99.90;;;;;;5061716;28;20460;-68
2022/10/05 04:13:43;;;;;;;9.52;6.50;;;14.50;99.90;;;;;;5091938;28;20036;-69
2022/10/05 04:16:18;;;;;;;10.50;6.78;;;14.50;99.90;;;;;;5090760;28;20051;-68
2022/10/05 04:19:08;;;;;;;9.80;6.50;;;14.50;99.90;;;;;;5072105;28;20405;-68
2022/10/05 04:21:48;;;;;;;13.45;6.88;;;14.50;99.90;;;;;;5091606;28;20042;-68
2022/10/05 04:24:25;;;;;;;9.20;6.93;;;14.50;99.90;;;;;;5091679;28;20044;-69
2022/10/05 04:27:18;;;;;;;9.27;6.50;;;14.50;99.90;;;;;;5088005;28;20040;-68
2022/10/05 04:30:04;;;;;;;9.73;6.63;;;14.50;99.90;;;;;;5009163;28;20045;-68
2022/10/05 04:32:52;;;;;;;9.60;6.43;;;14.50;99.90;;;;;;5019900;28;20345;-69
2022/10/05 04:35:37;;;;;;;10.60;6.43;;;14.50;99.90;;;;;;4991204;28;20038;-68
2022/10/05 04:38:21;;;;;;;9.68;6.28;;;14.50;99.90;;;;;;4974843;28;20041;-68
2022/10/05 04:40:56;;;;;;;9.60;6.72;;;14.50;99.90;;;;;;4987898;28;20054;-68
2022/10/05 04:43:37;;;;;;;8.25;6.28;;;14.50;99.90;;;;;;4992086;28;20041;-69
2022/10/05 04:46:21;;;;;;;10.13;6.40;;;14.50;99.90;;;;;;4986256;28;20432;-68
2022/10/05 04:48:49;;;;;;;10.75;6.05;;;14.50;99.90;;;;;;4988966;28;20465;-68
2022/10/05 04:51:23;;;;;;;12.40;6.35;;;14.50;99.90;;;;;;4971119;28;20096;-68
2022/10/05 04:54:11;;;;;;;11.23;6.50;;;14.40;99.90;;;;;;4990919;28;20080;-69
2022/10/05 04:56:46;;;;;;;8.85;6.07;;;14.40;99.90;;;;;;4990533;28;20046;-69
2022/10/05 05:00:00;;;;;;;9.00;6.40;;;14.40;99.90;;;;;;4992427;28;20599;-68
2022/10/05 05:02:47;;;;;;;10.95;5.93;;;14.40;99.90;;;;;;4966613;28;20054;-69
2022/10/05 05:05:27;;;;;;;9.82;6.78;;;14.40;99.90;;;;;;4953533;28;20045;-69
2022/10/05 05:08:10;;;;;;;9.38;6.28;;;14.40;99.90;;;;;;5026054;28;20566;-68
2022/10/05 05:11:05;;;;;;;10.55;7.10;;;14.40;99.90;;;;;;5024147;28;20045;-67
2022/10/05 05:13:58;;;;;;;8.95;7.07;;;14.40;99.90;;;;;;4989399;28;20515;-67
2022/10/05 05:16:37;;;;;;;9.93;6.38;;;14.40;99.90;;;;;;4988487;28;20037;-68
2022/10/05 05:19:20;;;;;;;12.20;6.90;;;14.40;99.90;;;;;;4991732;28;20133;-68
2022/10/05 05:22:08;;;;;;;9.90;6.68;;;14.40;99.90;;;;;;4985607;28;20521;-69
2022/10/05 05:25:03;;;;;;;8.55;6.25;;;14.40;99.90;;;;;;4992090;28;20057;-68
2022/10/05 05:27:43;;;;;;;10.30;6.40;;;14.40;99.90;;;;;;4987837;28;20053;-68
2022/10/05 05:30:58;;;;;;;9.30;6.22;;;14.40;99.90;;;;;;4990143;28;20075;-70
2022/10/05 05:33:54;;;;;;;8.05;6.32;;;14.40;99.90;;;;;;4901977;29;20460;-70
2022/10/05 05:36:41;;;;;;;9.93;6.65;;;14.40;99.90;;;;;;4894493;29;20052;-71
2022/10/05 05:39:24;;;;;;;9.98;6.80;;;14.40;99.90;;;;;;4898778;29;20649;-71
2022/10/05 05:41:50;;;;;;;8.35;6.60;;;14.40;99.90;;;;;;4895962;29;20055;-70
2022/10/05 05:44:22;;;;;;;12.52;6.15;;;14.30;99.90;;;;;;4909263;29;20052;-71
2022/10/05 05:47:05;;;;;;;9.55;6.07;;;14.30;99.90;;;;;;4906493;29;20052;-71
2022/10/05 05:49:47;;;;;;;10.57;7.68;;;14.40;99.90;;;;;;4896790;28;20055;-71
2022/10/05 05:52:23;;;;;;;10.13;6.78;;;14.40;99.90;;;;;;4980190;28;20053;-70
2022/10/05 05:54:55;;;;;;;10.05;6.80;;;14.30;99.90;;;;;;4971604;28;20041;-70
2022/10/05 05:57:33;;;;;;;9.38;6.80;;;14.30;99.90;;;;;;4973371;28;20046;-70
2022/10/05 06:00:07;;;;;;;11.07;6.85;;;14.30;99.90;;;;;;4973255;28;20042;-70
2022/10/05 06:02:49;;;;;;;8.13;6.80;;;14.30;99.90;;;;;;4972026;28;20046;-70
2022/10/05 06:05:30;;;;;;;8.57;6.57;;;14.30;99.90;;;;;;4980869;28;20153;-70
2022/10/05 06:08:00;;;;;;;10.75;7.32;;;14.30;99.90;;;;;;4976786;28;20097;-70
2022/10/05 06:10:41;;;;;;;11.07;7.63;;;14.40;99.90;;;;;;5052214;28;20059;-70
2022/10/05 06:13:16;;;;;;;9.52;6.70;;;14.40;99.90;;;;;;5035296;28;20060;-70
2022/10/05 06:15:58;;;;;;;9.40;7.20;;;14.40;99.90;;;;;;5050375;28;20145;-70
2022/10/05 06:18:24;;;;;;;8.13;6.70;;;14.40;99.90;;;;;;5051403;28;20086;-71
2022/10/05 06:20:59;;;;;;;10.77;6.80;;;14.40;99.90;;;;;;5034466;28;20076;-70
2022/10/05 06:23:38;;;;;;;8.48;6.32;;;14.40;99.90;;;;;;5057898;28;20435;-70
2022/10/05 06:26:28;;;;;;;6.40;5.80;;;14.40;99.90;;;;;;5056041;28;20036;-70
2022/10/05 06:29:02;;;;;;;9.63;6.22;;;14.40;99.90;;;;;;5071948;28;20513;-70
2022/10/05 06:31:48;;;;;;;7.35;5.88;;;14.50;99.90;;;;;;5052523;28;20072;-70
2022/10/05 06:34:52;;;;;;;7.78;5.65;;;14.50;99.90;;;;;;5049284;28;20041;-71
2022/10/05 06:37:42;;;;;;;6.85;5.90;;;14.50;99.90;;;;;;5051837;28;20068;-71
2022/10/05 06:40:26;;;;;;;9.25;5.95;;;14.50;99.90;;;;;;5049600;28;20139;-70
2022/10/05 06:43:08;;;;;;;9.90;6.13;;;14.50;99.90;;;;;;5057661;28;20063;-70
2022/10/05 06:45:44;;;;;;;7.22;5.78;;;14.60;99.90;;;;;;5054782;28;20056;-70
2022/10/05 06:48:32;;;;;;;6.32;5.53;;;14.60;99.90;;;;;;5065434;28;20055;-70
2022/10/05 06:51:22;;;;;;;8.52;5.05;;;14.50;99.90;;;;;;5044291;28;20036;-71
2022/10/05 06:54:06;;;;;;;5.63;5.00;;;14.60;99.90;;;;;;5031449;28;20119;-70
2022/10/05 06:56:47;;;;;;;7.40;4.97;;;14.60;99.90;;;;;;5033076;28;20086;-70
2022/10/05 06:59:38;;;;;;;6.07;5.05;;;14.60;99.90;;;;;;5056672;28;20106;-70
2022/10/05 07:02:10;;;;;;;8.10;5.50;;;14.60;99.90;;;;;;5072030;28;20044;-71
2022/10/05 07:04:56;;;;;;;7.30;4.50;;;14.60;99.90;;;;;;5058434;28;20438;-70
2022/10/05 07:07:37;;;;;;;5.85;4.93;;;14.60;99.90;;;;;;5051924;28;20036;-71
2022/10/05 07:10:31;;;;;;;5.13;4.60;;;14.60;99.90;;;;;;5051911;28;20044;-70
2022/10/05 07:13:00;;;;;;;4.70;4.20;;;14.70;99.90;;;;;;5058667;28;20085;-70
2022/10/05 07:15:31;;;;;;;5.65;4.18;;;14.70;99.90;;;;;;5057957;28;20040;-70
2022/10/05 07:18:26;;;;;;;5.95;4.35;;;14.70;99.90;;;;;;5026528;28;20072;-70
2022/10/05 07:20:54;;;;;;;5.22;4.20;;;14.80;99.90;;;;;;5055283;28;20063;-71
2022/10/05 07:23:29;;;;;;;4.82;3.75;;;14.80;99.90;;;;;;5055490;28;20469;-71
2022/10/05 07:26:04;;;;;;;5.47;3.63;;;14.80;99.90;;;;;;5054951;28;20044;-71
2022/10/05 07:28:47;;;;;;;7.47;4.30;;;14.80;99.90;;;;;;5053457;28;20082;-70
2022/10/05 07:31:19;;;;;;;5.45;4.20;;;14.80;99.90;;;;;;5055642;28;20395;-71
2022/10/05 07:34:17;;;;;;;6.68;4.88;;;14.90;99.90;;;;;;5071734;28;20052;-70
2022/10/05 07:39:50;;;;;;;5.65;4.85;;;14.80;99.90;;;;;;5075301;28;20051;-71
2022/10/05 07:42:22;;;;;;;5.63;5.00;;;14.90;99.90;;;;;;5075299;28;20055;-71
2022/10/05 07:44:53;;;;;;;5.30;4.80;;;14.90;99.90;;;;;;5074979;28;20059;-71
2022/10/05 07:47:45;;;;;;;5.50;5.00;;;14.90;99.90;;;;;;5074111;28;20407;-71
2022/10/05 07:50:24;;;;;;;7.25;5.18;;;14.90;99.90;;;;;;5075263;28;20145;-71
2022/10/05 07:52:57;;;;;;;8.02;5.57;;;15.00;99.90;;;;;;5075160;28;20544;-71
2022/10/05 07:55:35;;;;;;;8.05;5.30;;;14.90;99.90;;;;;;5071571;28;20119;-71
2022/10/05 07:58:17;;;;;;;7.07;5.88;;;15.00;99.90;;;;;;5056798;28;20123;-71
2022/10/05 08:01:12;;;;;;;9.77;6.10;;;15.00;99.90;;;;;;5066015;28;20051;-71
2022/10/05 08:03:43;;;;;;;7.22;5.68;;;15.00;99.90;;;;;;5047730;28;20115;-71
2022/10/05 08:06:29;;;;;;;6.33;5.60;;;15.00;99.90;;;;;;5074481;28;20028;-71
2022/10/05 08:09:01;;;;;;;6.47;5.60;;;15.00;99.90;;;;;;5071584;28;20788;-70
2022/10/05 08:11:36;;;;;;;7.93;5.63;;;15.10;99.90;;;;;;5071735;28;20036;-71
2022/10/05 08:14:15;;;;;;;8.35;5.72;;;15.10;99.90;;;;;;5057773;28;20047;-71
2022/10/05 08:16:45;;;;;;;6.70;5.80;;;15.10;99.90;;;;;;5073342;28;20046;-71
2022/10/05 08:19:36;;;;;;;9.68;6.68;;;15.10;99.90;;;;;;5072807;28;20143;-71
2022/10/05 08:22:08;;;;;;;7.35;6.10;;;15.10;99.90;;;;;;5073968;28;20146;-70
2022/10/05 08:24:55;;;;;;;7.28;5.47;;;15.10;99.90;;;;;;5072604;28;20429;-71
2022/10/05 08:27:37;;;;;;;7.50;5.93;;;15.20;99.90;;;;;;5057621;28;20106;-71
2022/10/05 08:30:12;;;;;;;6.40;5.55;;;15.20;99.90;;;;;;5073950;28;20036;-71
2022/10/05 08:32:55;;;;;;;8.43;5.88;;;15.30;99.90;;;;;;5072389;28;20048;-71
2022/10/05 08:35:26;;;;;;;8.90;5.50;;;15.30;99.90;;;;;;5071556;28;20040;-71
2022/10/05 08:37:53;;;;;;;8.53;5.47;;;15.30;99.90;;;;;;5074222;28;20040;-71
2022/10/05 08:40:33;;;;;;;8.20;5.78;;;15.30;99.90;;;;;;5074268;28;20036;-71
2022/10/05 08:43:37;;;;;;;5.82;4.88;;;15.30;99.90;;;;;;5073911;28;20063;-71
2022/10/05 08:46:21;;;;;;;8.45;5.30;;;15.40;99.90;;;;;;5072829;28;20509;-71
2022/10/05 08:49:18;;;;;;;7.78;5.00;;;15.40;99.90;;;;;;5074260;28;20157;-71
2022/10/05 08:52:06;;;;;;;6.95;4.32;;;15.40;99.90;;;;;;5055137;28;20039;-70
2022/10/05 08:55:08;;;;;;;6.05;4.25;;;15.40;99.90;;;;;;5053563;28;20040;-70
2022/10/05 08:57:37;;;;;;;4.60;4.03;;;15.40;99.90;;;;;;5071155;28;20079;-71
2022/10/05 09:00:21;;;;;;;5.40;4.20;;;15.50;99.90;;;;;;5073732;28;20039;-70
2022/10/05 09:03:20;;;;;;;6.45;4.10;;;15.50;99.90;;;;;;5070412;28;20059;-70
2022/10/05 09:06:20;;;;;;;4.32;3.90;;;15.50;99.90;;;;;;5056389;28;20055;-71
2022/10/05 09:09:25;;;;;;;5.07;3.63;;;15.50;99.90;;;;;;5046709;28;20044;-71
2022/10/05 09:12:10;;;;;;;3.67;3.13;;;15.50;99.90;;;;;;5071840;28;20036;-71
2022/10/05 09:14:53;;;;;;;9.05;3.63;;;15.60;99.90;;;;;;5056415;28;20122;-70
2022/10/05 09:17:49;;;;;;;6.72;3.28;;;15.60;99.90;;;;;;5073402;28;20115;-71
2022/10/05 09:20:52;;;;;;;5.85;3.10;;;15.60;99.90;;;;;;5056716;28;20043;-71
2022/10/05 09:23:38;;;;;;;3.40;3.05;;;15.70;99.90;;;;;;5069983;28;20119;-71
2022/10/05 09:26:28;;;;;;;3.15;2.72;;;15.70;99.90;;;;;;5073154;28;20045;-71
2022/10/05 09:29:39;;;;;;;3.75;3.10;;;15.80;99.90;;;;;;5066571;28;20062;-70
2022/10/05 09:32:29;;;;;;;4.60;2.70;;;15.80;99.90;;;;;;5048382;28;20126;-71
2022/10/05 09:35:33;;;;;;;3.10;2.65;;;15.80;99.90;;;;;;5051460;28;20131;-71
2022/10/05 09:38:24;;;;;;;4.50;3.40;;;15.80;99.90;;;;;;4935444;28;20497;-70
2022/10/05 09:41:02;;;;;;;5.72;3.10;;;15.80;99.90;;;;;;4951747;28;20046;-71
2022/10/05 09:43:33;;;;;;;5.07;2.80;;;15.90;99.90;;;;;;4954438;28;20071;-70
2022/10/05 09:46:30;;;;;;;4.43;3.28;;;15.90;99.90;;;;;;4958359;28;20116;-71
2022/10/05 09:49:17;;;;;;;6.53;3.45;;;15.90;99.90;;;;;;4936492;28;20441;-70
2022/10/05 09:51:42;;;;;;;5.30;3.53;;;15.80;99.90;;;;;;4955562;28;20057;-70
2022/10/05 09:54:36;;;;;;;3.63;3.28;;;15.80;99.90;;;;;;4936178;28;20055;-71
2022/10/05 09:57:20;;;;;;;4.45;3.45;;;15.80;99.90;;;;;;4953568;28;20509;-71
2022/10/05 09:59:55;;;;;;;4.00;3.28;;;15.80;99.90;;;;;;4950844;28;20518;-70
2022/10/05 10:02:26;;;;;;;4.00;3.15;;;15.70;99.90;;;;;;4995946;28;20035;-70
2022/10/05 10:05:10;;;;;;;5.45;3.70;;;15.80;99.90;;;;;;4957292;28;20100;-70
2022/10/05 10:07:49;;;;;;;4.63;3.45;;;15.80;99.90;;;;;;4952751;28;20560;-70
2022/10/05 10:10:14;;;;;;;4.10;3.30;;;15.80;99.90;;;;;;4951900;28;20046;-70
2022/10/05 10:13:02;;;;;;;5.38;3.38;;;15.80;99.90;;;;;;4972468;28;20038;-70
2022/10/05 10:15:27;;;;;;;5.45;3.20;;;15.80;99.90;;;;;;5057534;28;20482;-71
2022/10/05 10:18:09;;;;;;;5.10;3.38;;;15.80;99.90;;;;;;5037754;28;20043;-71
2022/10/05 10:20:54;;;;;;;5.78;3.40;;;15.80;99.90;;;;;;5068528;28;20028;-70
2022/10/05 10:23:53;;;;;;;5.75;3.72;;;15.90;99.90;;;;;;5051755;28;20051;-70
2022/10/05 10:26:38;;;;;;;4.63;3.33;;;15.80;99.90;;;;;;5036257;28;20043;-70
2022/10/05 10:29:46;;;;;;;3.60;3.20;;;15.90;99.90;;;;;;5050825;28;20039;-70
2022/10/05 10:32:30;;;;;;;5.38;3.53;;;15.90;99.90;;;;;;4961201;28;20560;-70
2022/10/05 10:35:04;;;;;;;5.38;3.58;;;15.90;99.90;;;;;;4953039;28;20090;-70
2022/10/05 10:37:48;;;;;;;4.93;3.97;;;16.00;99.90;;;;;;4953118;28;20086;-70
2022/10/05 10:40:24;;;;;;;5.68;3.22;;;16.00;99.90;;;;;;4954124;28;20042;-70
2022/10/05 10:43:04;;;;;;;3.63;3.00;;;16.00;99.90;;;;;;4955052;28;20465;-70
2022/10/05 10:46:00;;;;;;;5.68;2.70;;;16.00;99.90;;;;;;4958025;28;20038;-70
2022/10/05 10:48:28;;;;;;;3.40;3.10;;;16.00;99.90;;;;;;4962115;28;20063;-70
2022/10/05 10:51:09;;;;;;;4.60;3.08;;;16.10;99.90;;;;;;4953196;28;20104;-70
2022/10/05 10:53:47;;;;;;;4.30;3.10;;;16.10;99.90;;;;;;4947347;28;20046;-71
2022/10/05 10:56:51;;;;;;;6.05;3.20;;;16.20;99.90;;;;;;4975388;28;20046;-70
2022/10/05 10:59:38;;;;;;;4.63;3.55;;;16.20;99.90;;;;;;4954305;28;20086;-70
2022/10/05 11:02:13;;;;;;;6.03;3.33;;;16.20;99.90;;;;;;4959151;28;20494;-70
2022/10/05 11:04:53;;;;;;;4.13;3.50;;;16.30;99.90;;;;;;4955916;28;21808;-71
2022/10/05 11:07:33;;;;;;;5.40;3.38;;;16.30;99.90;;;;;;4958600;28;20085;-70
2022/10/05 11:10:22;;;;;;;4.03;3.30;;;16.30;99.90;;;;;;5037677;28;20130;-70
2022/10/05 11:13:25;;;;;;;5.00;3.40;;;16.40;99.90;;;;;;5055039;28;20410;-71
2022/10/05 11:16:10;;;;;;;3.60;2.90;;;16.40;99.90;;;;;;5054803;28;20044;-70
2022/10/05 11:19:05;;;;;;;3.03;2.72;;;16.50;99.90;;;;;;5054514;28;20032;-71
2022/10/05 11:21:54;;;;;;;4.20;2.88;;;16.60;99.90;;;;;;5070389;28;20029;-71
2022/10/05 11:24:57;;;;;;;3.88;2.88;;;16.60;99.90;;;;;;5047167;28;20406;-70
2022/10/05 11:27:26;;;;;;;;;;;16.60;99.90;;;;;;5053876;28;20051;-71
2022/10/05 11:30:10;;;;;;;3.72;2.50;;;16.60;99.90;;;;;;5053647;28;19916;-71
2022/10/05 11:32:41;;;;;;;5.43;2.25;;;16.60;99.90;;;;;;5069207;28;20047;-70
2022/10/05 11:35:38;;;;;;;3.50;2.55;;;16.60;99.90;;;;;;5058755;28;20059;-71
2022/10/05 11:38:13;;;;;;;3.10;2.10;;;16.50;99.90;;;;;;5075943;28;20446;-70
2022/10/05 11:41:13;;;;;;;5.05;2.35;;;16.50;99.90;;;;;;5042992;28;20052;-71
2022/10/05 11:44:05;;;;;;;7.47;2.72;;;16.40;99.90;;;;;;5055574;28;20040;-70
2022/10/05 11:46:52;;;;;;;4.20;3.20;;;16.40;99.90;;;;;;4955795;28;20437;-70
2022/10/05 11:49:24;;;;;;;4.78;2.42;;;16.40;99.90;;;;;;4955735;28;20050;-71
2022/10/05 11:51:56;;;;;;;5.65;3.17;;;16.30;99.90;;;;;;4958975;28;20529;-70
2022/10/05 11:54:31;;;;;;;4.53;2.80;;;16.30;99.90;;;;;;4949762;28;20453;-71
2022/10/05 11:57:18;;;;;;;5.88;2.65;;;16.30;99.90;;;;;;4956558;28;20137;-70
2022/10/05 11:59:55;;;;;;;4.60;3.10;;;16.30;99.90;;;;;;4964145;28;20106;-71
2022/10/05 12:02:39;;;;;;;4.57;3.15;;;16.30;99.90;;;;;;4955622;28;20097;-70
2022/10/05 12:05:32;;;;;;;6.13;2.83;;;16.30;99.90;;;;;;4955013;28;20072;-70
2022/10/05 12:08:30;;;;;;;3.95;3.05;;;16.30;99.90;;;;;;4938276;28;20051;-70
2022/10/05 12:11:42;;;;;;;4.70;3.15;;;16.30;99.90;;;;;;4954956;28;20463;-71
2022/10/05 12:14:19;;;;;;;5.78;3.13;;;16.30;99.90;;;;;;4971848;28;20469;-71
2022/10/05 12:16:51;;;;;;;5.95;3.33;;;16.30;99.90;;;;;;4955824;28;20047;-71
2022/10/05 12:19:35;;;;;;;4.75;3.03;;;16.30;99.90;;;;;;4955802;28;20497;-70
2022/10/05 12:22:15;;;;;;;3.35;3.05;;;16.30;99.90;;;;;;4942138;28;20047;-71
2022/10/05 12:25:00;;;;;;;4.13;3.30;;;16.30;99.90;;;;;;5047580;28;20048;-71
2022/10/05 12:27:32;;;;;;;3.88;3.35;;;16.30;99.90;;;;;;5054613;28;20080;-70
2022/10/05 12:30:24;;;;;;;5.70;3.40;;;16.30;99.90;;;;;;5054817;28;20040;-70
2022/10/05 12:33:12;;;;;;;9.68;4.00;;;16.30;99.90;;;;;;5061077;28;20169;-71
2022/10/05 12:35:48;;;;;;;6.13;3.30;;;16.30;99.90;;;;;;5072843;28;20411;-71
2022/10/05 12:38:48;;;;;;;8.48;3.50;;;16.40;99.90;;;;;;5072337;28;20075;-70
2022/10/05 12:41:37;;;;;;;6.85;3.67;;;16.30;99.90;;;;;;5074197;28;20040;-71
2022/10/05 12:44:08;;;;;;;5.65;3.40;;;16.40;99.90;;;;;;5071811;28;20032;-70
2022/10/05 12:46:55;;;;;;;3.40;3.10;;;16.40;99.90;;;;;;5074429;28;20551;-71
2022/10/05 12:49:32;;;;;;;5.38;3.40;;;16.40;99.90;;;;;;5074125;28;20040;-70
2022/10/05 12:52:04;;;;;;;3.55;3.15;;;16.50;99.90;;;;;;5073935;28;20075;-69
2022/10/05 12:54:47;;;;;;;3.95;3.28;;;16.50;99.90;;;;;;5087729;28;20090;-70
2022/10/05 12:57:44;;;;;;;4.15;3.47;;;16.60;99.90;;;;;;5066489;28;20115;-70
2022/10/05 13:00:14;;;;;;;5.65;3.15;;;16.60;99.90;;;;;;5074078;28;20235;-71
2022/10/05 13:02:46;;;;;;;4.43;2.97;;;16.60;99.90;;;;;;5070825;28;20032;-71
2022/10/05 13:05:33;;;;;;;7.43;2.80;;;16.60;99.90;;;;;;5073871;28;20044;-71
2022/10/05 13:08:23;;;;;;;3.42;3.13;;;16.60;99.90;;;;;;5071555;28;20039;-71
2022/10/05 13:11:12;;;;;;;6.22;2.70;;;16.60;99.90;;;;;;5057257;28;20123;-71
2022/10/05 13:13:48;;;;;;;5.75;2.95;;;16.70;99.90;;;;;;4973944;28;20069;-71
2022/10/05 13:16:28;;;;;;;5.10;2.72;;;16.70;99.90;;;;;;4971413;28;20061;-70
2022/10/05 13:19:18;;;;;;;5.03;2.90;;;16.70;99.90;;;;;;4973726;28;20374;-71
2022/10/05 13:22:03;;;;;;;4.30;2.65;;;16.80;99.90;;;;;;4973595;28;20042;-70
2022/10/05 13:24:44;;;;;;;4.72;2.95;;;16.80;99.90;;;;;;4970455;28;20124;-70
2022/10/05 13:27:22;;;;;;;6.22;2.70;;;16.90;99.90;;;;;;4953571;28;20050;-70
2022/10/05 13:30:03;;;;;;;3.97;2.95;;;17.00;99.90;;;;;;4971619;28;20112;-70
2022/10/05 13:32:33;;;;;;;5.68;2.85;;;17.00;99.90;;;;;;4948359;28;20085;-70
2022/10/05 13:35:12;;;;;;;5.13;2.72;;;17.10;99.90;;;;;;4972998;28;20046;-70
2022/10/05 13:37:54;;;;;;;4.82;2.83;;;17.10;99.90;;;;;;4969048;28;20527;-71
2022/10/05 13:40:27;;;;;;;4.25;2.63;;;17.10;99.90;;;;;;4973225;28;20520;-70
2022/10/05 13:43:12;;;;;;;5.30;2.55;;;17.10;99.90;;;;;;4972974;28;20069;-70
2022/10/05 13:45:50;;;;;;;4.63;2.60;;;17.20;99.90;;;;;;4965762;28;20144;-71
2022/10/05 13:48:40;;;;;;;5.10;2.63;;;17.30;99.90;;;;;;4969977;28;21351;-70
2022/10/05 13:51:17;;;;;;;3.80;2.40;;;17.30;99.90;;;;;;5037049;28;20056;-71
2022/10/05 13:53:51;;;;;;;6.75;2.75;;;17.30;99.90;;;;;;5072777;28;20051;-70
2022/10/05 13:56:23;;;;;;;7.40;2.80;;;17.30;99.90;;;;;;5071315;28;20517;-70
2022/10/05 13:59:17;;;;;;;4.88;2.83;;;17.30;99.90;;;;;;5071554;28;20043;-71
2022/10/05 14:01:51;;;;;;;3.70;2.60;;;17.30;99.90;;;;;;5072583;28;20032;-71
2022/10/05 14:04:23;;;;;;;4.80;2.78;;;17.20;99.90;;;;;;5072458;28;20040;-70